Time;durP1;ratioP1;P1;durP2;ratioP2;P2;SDS_P1;SDS_P2;PMS_P1;PMS_P2;Temp;Humidity;BMP_temperature;BMP_pressure;BME280_temperature;BME280_humidity;BME280_pressure;Samples;Min_cycle;Max_cycle;Signal;HPM_P1;HPM_P2
2022/11/07 14:16:15;;;;;;;12.85;1.55;;;18.20;79.80;;;;;;5090733;27;1266712;-71
2022/11/07 14:18:49;;;;;;;5.00;1.20;;;21.70;63.70;;;;;;5111454;28;20046;-70
2022/11/07 14:21:26;;;;;;;4.30;1.30;;;21.80;62.50;;;;;;5092758;28;20031;-70
2022/11/07 14:23:52;;;;;;;4.10;1.55;;;22.00;62.70;;;;;;5111336;28;20110;-70
2022/11/07 14:26:20;;;;;;;4.93;1.30;;;22.10;61.50;;;;;;5111274;28;20055;-71
2022/11/07 14:28:46;;;;;;;2.72;1.30;;;22.20;61.30;;;;;;5110967;28;20012;-72
2022/11/07 14:31:20;;;;;;;4.10;1.38;;;22.30;61.00;;;;;;5111065;28;20026;-71
2022/11/07 14:33:49;;;;;;;4.05;1.48;;;22.30;60.80;;;;;;5110529;28;20102;-74
2022/11/07 14:36:15;;;;;;;4.80;1.52;;;22.50;60.50;;;;;;5111051;28;20031;-77
2022/11/07 14:38:49;;;;;;;4.22;1.02;;;22.40;60.40;;;;;;5088606;28;20024;-74
2022/11/07 14:41:15;;;;;;;4.95;1.38;;;22.50;60.50;;;;;;5110815;28;20072;-72
2022/11/07 14:43:40;;;;;;;4.93;1.17;;;22.50;60.30;;;;;;5092726;28;20016;-74
2022/11/07 14:46:07;;;;;;;3.92;1.20;;;22.60;60.20;;;;;;5092702;28;20111;-73
2022/11/07 14:48:33;;;;;;;3.75;1.10;;;22.60;60.30;;;;;;5092780;28;20031;-74
2022/11/07 14:50:59;;;;;;;3.78;1.20;;;22.60;60.30;;;;;;5076050;28;20028;-72
2022/11/07 14:53:29;;;;;;;4.63;1.20;;;22.50;60.10;;;;;;5110697;28;20031;-72
2022/11/07 14:55:56;;;;;;;2.10;1.08;;;22.60;59.90;;;;;;5092691;28;20495;-73
2022/11/07 14:58:23;;;;;;;3.45;1.20;;;22.70;59.60;;;;;;5075840;28;20514;-73
2022/11/07 15:00:57;;;;;;;4.05;1.60;;;22.70;59.40;;;;;;5092246;28;20028;-72
2022/11/07 15:03:29;;;;;;;4.10;1.20;;;22.90;59.10;;;;;;5110425;28;20020;-73
2022/11/07 15:05:55;;;;;;;4.63;1.33;;;22.80;59.30;;;;;;5110666;28;20045;-72
2022/11/07 15:08:39;;;;;;;3.83;1.30;;;22.80;59.30;;;;;;5072711;28;20028;-74
2022/11/07 15:11:13;;;;;;;8.13;1.80;;;22.60;59.60;;;;;;5110923;28;20020;-74
2022/11/07 15:13:39;;;;;;;4.18;1.50;;;22.60;59.70;;;;;;5110565;28;20016;-77
2022/11/07 15:16:15;;;;;;;3.75;1.15;;;22.60;59.80;;;;;;5092123;28;20366;-76
2022/11/07 15:18:43;;;;;;;5.45;1.42;;;22.70;59.80;;;;;;5076330;28;20024;-71
2022/11/07 15:21:33;;;;;;;5.35;1.02;;;22.70;59.50;;;;;;5090050;28;20467;-71
2022/11/07 15:24:00;;;;;;;5.72;1.70;;;22.70;59.70;;;;;;5094422;28;20051;-73
2022/11/07 15:26:33;;;;;;;4.45;1.20;;;22.70;59.60;;;;;;5102376;28;20365;-71
2022/11/07 15:29:20;;;;;;;7.90;1.90;;;22.80;59.40;;;;;;5096253;28;20123;-72
2022/11/07 15:31:47;;;;;;;3.47;1.23;;;22.80;59.40;;;;;;5081127;28;20042;-69
2022/11/07 15:34:15;;;;;;;3.78;1.42;;;22.80;59.10;;;;;;5078106;28;20396;-69
2022/11/07 15:36:40;;;;;;;16.30;9.00;;;22.90;59.10;;;;;;5096424;28;20029;-69
2022/11/07 15:39:07;;;;;;;16.98;11.00;;;22.90;59.30;;;;;;5096163;28;20028;-71
2022/11/07 15:41:33;;;;;;;17.63;11.57;;;22.90;59.20;;;;;;5077869;28;20077;-70
2022/11/07 15:43:59;;;;;;;16.90;12.27;;;22.90;59.50;;;;;;5078379;28;20108;-70
2022/11/07 15:46:36;;;;;;;15.73;12.50;;;22.80;59.20;;;;;;5095730;28;20032;-70
2022/11/07 15:49:02;;;;;;;17.63;12.02;;;22.90;59.10;;;;;;5079888;28;20020;-70
2022/11/07 15:51:28;;;;;;;13.25;10.25;;;22.90;58.90;;;;;;5096106;28;20039;-69
2022/11/07 15:53:54;;;;;;;14.18;10.13;;;22.90;58.70;;;;;;5096007;28;20487;-70
2022/11/07 15:56:21;;;;;;;12.70;9.40;;;22.90;58.60;;;;;;5096088;28;20020;-70
2022/11/07 15:58:46;;;;;;;12.43;8.75;;;22.80;58.40;;;;;;5078116;28;20383;-69
2022/11/07 16:01:12;;;;;;;11.52;8.32;;;22.90;58.30;;;;;;5078080;28;20099;-71
2022/11/07 16:03:37;;;;;;;13.70;8.25;;;22.80;58.10;;;;;;5096023;28;20532;-70
2022/11/07 16:06:12;;;;;;;8.93;6.88;;;22.80;58.20;;;;;;5095986;28;20024;-70
2022/11/07 16:08:38;;;;;;;9.77;7.18;;;22.70;58.00;;;;;;5061894;28;20024;-70
2022/11/07 16:11:09;;;;;;;9.65;6.70;;;22.80;58.00;;;;;;5095640;28;20085;-70
2022/11/07 16:13:35;;;;;;;10.68;6.38;;;22.80;58.00;;;;;;5095826;28;20435;-70
2022/11/07 16:16:00;;;;;;;8.50;5.90;;;22.80;58.00;;;;;;5095829;28;20047;-70
2022/11/07 16:18:26;;;;;;;8.68;6.40;;;22.70;58.00;;;;;;5077611;28;20078;-70
2022/11/07 16:20:51;;;;;;;8.93;5.50;;;22.70;58.10;;;;;;5077762;28;20050;-70
2022/11/07 16:23:17;;;;;;;9.20;5.50;;;22.60;58.10;;;;;;5095758;28;20377;-70
2022/11/07 16:25:45;;;;;;;8.80;5.25;;;22.60;58.20;;;;;;5095568;28;20036;-70
2022/11/07 16:28:46;;;;;;;7.75;5.03;;;22.60;58.10;;;;;;5077808;28;20524;-70
2022/11/07 16:31:12;;;;;;;7.57;5.03;;;22.60;58.50;;;;;;4993671;28;20069;-70
2022/11/07 16:33:37;;;;;;;8.02;5.20;;;22.60;58.40;;;;;;5074657;28;20063;-70
2022/11/07 16:36:16;;;;;;;9.55;4.60;;;22.60;58.40;;;;;;5095015;28;20032;-70
2022/11/07 16:38:41;;;;;;;8.82;4.35;;;22.50;58.50;;;;;;5077813;28;20016;-71
2022/11/07 16:41:07;;;;;;;8.20;3.95;;;22.50;58.50;;;;;;5095468;28;20549;-70
2022/11/07 16:43:34;;;;;;;6.25;3.65;;;22.50;58.40;;;;;;5095202;28;20078;-70
2022/11/07 16:46:00;;;;;;;5.72;3.97;;;22.50;58.40;;;;;;5094835;28;20439;-70
2022/11/07 16:48:27;;;;;;;7.47;3.80;;;22.40;58.40;;;;;;5095032;28;20028;-71
2022/11/07 16:50:53;;;;;;;4.70;3.47;;;22.40;58.60;;;;;;5094844;28;20023;-70
2022/11/07 16:53:19;;;;;;;6.85;3.75;;;22.40;58.70;;;;;;5094834;28;20028;-70
2022/11/07 16:55:46;;;;;;;6.00;3.45;;;22.40;58.80;;;;;;5094659;28;20050;-70
2022/11/07 16:58:22;;;;;;;8.60;3.45;;;22.40;58.80;;;;;;5075956;28;20016;-70
2022/11/07 17:00:47;;;;;;;5.53;3.42;;;22.30;58.80;;;;;;5094579;28;20448;-70
2022/11/07 17:03:13;;;;;;;4.35;2.78;;;22.30;58.80;;;;;;5094897;28;20056;-70
2022/11/07 17:05:38;;;;;;;5.80;2.85;;;22.30;58.90;;;;;;5094910;28;20028;-70
2022/11/07 17:08:07;;;;;;;6.18;3.08;;;22.30;59.00;;;;;;5095015;28;20035;-71
2022/11/07 17:10:33;;;;;;;8.00;3.00;;;22.30;59.10;;;;;;5060253;28;20384;-70
2022/11/07 17:12:58;;;;;;;5.15;2.53;;;22.30;59.40;;;;;;5094758;28;20028;-69
2022/11/07 17:15:24;;;;;;;6.93;2.80;;;22.30;59.10;;;;;;5094734;28;20094;-71
2022/11/07 17:17:49;;;;;;;6.85;2.38;;;22.30;59.30;;;;;;5094601;28;20028;-69
2022/11/07 17:20:19;;;;;;;5.88;2.50;;;22.30;59.40;;;;;;5094551;28;20460;-67
2022/11/07 17:22:45;;;;;;;;;;;22.30;59.60;;;;;;5060528;28;20093;-69
2022/11/07 17:25:10;;;;;;;;;;;22.40;59.70;;;;;;5094419;28;19904;-69
2022/11/07 17:27:37;;;;;;;;;;;22.50;59.10;;;;;;5094109;28;19908;-69
2022/11/07 17:30:03;;;;;;;;;;;22.50;59.10;;;;;;5093972;28;19949;-70
2022/11/07 17:32:28;;;;;;;;;;;22.40;59.10;;;;;;5093466;28;20342;-73
2022/11/07 17:34:54;;;;;;;;;;;22.40;59.50;;;;;;5082451;28;19951;-73
2022/11/07 17:37:19;;;;;;;;;;;22.20;59.70;;;;;;5074361;28;19931;-71
2022/11/07 17:39:46;;;;;;;;;;;22.40;59.80;;;;;;5079787;28;19904;-73
2022/11/07 17:42:12;;;;;;;;;;;22.40;59.70;;;;;;5094051;28;19908;-73
2022/11/07 17:44:38;;;;;;;;;;;22.20;60.30;;;;;;5094297;28;20241;-73
2022/11/07 17:47:03;;;;;;;;;;;22.20;60.80;;;;;;5093910;28;20339;-75
2022/11/07 17:49:29;;;;;;;;;;;22.20;60.90;;;;;;5094331;28;20262;-70
2022/11/07 17:51:54;;;;;;;;;;;22.10;61.10;;;;;;5094179;28;20029;-71
